sensor_id;sensor_type;location;lat;lon;timestamp;temperature;humidity
22503;DHT22;11418;48.118;9.992;2022-10-16T00:00:44;11.70;99.90
22503;DHT22;11418;48.118;9.992;2022-10-16T00:04:45;11.80;99.90
22503;DHT22;11418;48.118;9.992;2022-10-16T00:08:46;11.60;99.90
22503;DHT22;11418;48.118;9.992;2022-10-16T00:12:47;11.60;99.90
22503;DHT22;11418;48.118;9.992;2022-10-16T00:16:48;11.50;99.90
22503;DHT22;11418;48.118;9.992;2022-10-16T00:20:49;11.40;99.90
22503;DHT22;11418;48.118;9.992;2022-10-16T00:24:49;11.30;99.90
22503;DHT22;11418;48.118;9.992;2022-10-16T00:28:51;11.40;99.90
22503;DHT22;11418;48.118;9.992;2022-10-16T00:32:51;11.30;99.90
22503;DHT22;11418;48.118;9.992;2022-10-16T00:36:52;11.50;99.90
22503;DHT22;11418;48.118;9.992;2022-10-16T00:40:53;11.40;99.90
22503;DHT22;11418;48.118;9.992;2022-10-16T00:44:56;11.50;99.90
22503;DHT22;11418;48.118;9.992;2022-10-16T00:49:18;11.50;99.90
22503;DHT22;11418;48.118;9.992;2022-10-16T00:53:18;11.50;99.90
22503;DHT22;11418;48.118;9.992;2022-10-16T00:57:18;11.50;99.90
22503;DHT22;11418;48.118;9.992;2022-10-16T01:01:19;11.60;99.90
22503;DHT22;11418;48.118;9.992;2022-10-16T01:05:22;11.60;99.90
22503;DHT22;11418;48.118;9.992;2022-10-16T01:09:31;11.60;99.90
22503;DHT22;11418;48.118;9.992;2022-10-16T01:13:41;11.50;99.90
22503;DHT22;11418;48.118;9.992;2022-10-16T01:17:51;11.40;99.90
22503;DHT22;11418;48.118;9.992;2022-10-16T01:21:55;11.50;99.90
22503;DHT22;11418;48.118;9.992;2022-10-16T01:30:43;11.50;99.90
22503;DHT22;11418;48.118;9.992;2022-10-16T01:35:01;11.50;99.90
22503;DHT22;11418;48.118;9.992;2022-10-16T01:39:03;11.50;99.90
22503;DHT22;11418;48.118;9.992;2022-10-16T01:43:10;11.50;99.90
22503;DHT22;11418;48.118;9.992;2022-10-16T01:47:13;11.60;99.90
22503;DHT22;11418;48.118;9.992;2022-10-16T01:51:15;11.60;99.90
22503;DHT22;11418;48.118;9.992;2022-10-16T01:55:24;11.60;99.90
22503;DHT22;11418;48.118;9.992;2022-10-16T01:59:27;11.60;99.90
22503;DHT22;11418;48.118;9.992;2022-10-16T02:03:32;11.70;99.90
22503;DHT22;11418;48.118;9.992;2022-10-16T02:07:33;11.80;99.90
22503;DHT22;11418;48.118;9.992;2022-10-16T02:11:34;11.80;99.90
22503;DHT22;11418;48.118;9.992;2022-10-16T02:15:35;11.90;99.90
22503;DHT22;11418;48.118;9.992;2022-10-16T02:19:36;12.00;99.90
22503;DHT22;11418;48.118;9.992;2022-10-16T02:23:54;12.00;99.90
22503;DHT22;11418;48.118;9.992;2022-10-16T02:28:21;12.00;99.90
22503;DHT22;11418;48.118;9.992;2022-10-16T02:32:26;12.00;99.90
22503;DHT22;11418;48.118;9.992;2022-10-16T02:36:27;12.10;99.90
22503;DHT22;11418;48.118;9.992;2022-10-16T02:40:28;12.00;99.90
22503;DHT22;11418;48.118;9.992;2022-10-16T02:44:29;12.10;99.90
22503;DHT22;11418;48.118;9.992;2022-10-16T02:48:30;12.10;99.90
22503;DHT22;11418;48.118;9.992;2022-10-16T02:52:30;12.00;99.90
22503;DHT22;11418;48.118;9.992;2022-10-16T02:56:31;12.10;99.90
22503;DHT22;11418;48.118;9.992;2022-10-16T03:00:31;12.20;99.90
22503;DHT22;11418;48.118;9.992;2022-10-16T03:04:32;12.60;99.90
22503;DHT22;11418;48.118;9.992;2022-10-16T03:08:32;12.80;99.90
22503;DHT22;11418;48.118;9.992;2022-10-16T03:12:33;12.50;99.90
22503;DHT22;11418;48.118;9.992;2022-10-16T03:16:33;12.30;99.90
22503;DHT22;11418;48.118;9.992;2022-10-16T03:20:34;12.20;99.90
22503;DHT22;11418;48.118;9.992;2022-10-16T03:24:34;12.20;99.90
22503;DHT22;11418;48.118;9.992;2022-10-16T03:28:35;11.90;99.90
22503;DHT22;11418;48.118;9.992;2022-10-16T03:32:36;11.90;99.90
22503;DHT22;11418;48.118;9.992;2022-10-16T03:36:36;11.80;99.90
22503;DHT22;11418;48.118;9.992;2022-10-16T03:40:37;11.80;99.90
22503;DHT22;11418;48.118;9.992;2022-10-16T03:44:37;11.80;99.90
22503;DHT22;11418;48.118;9.992;2022-10-16T03:48:38;11.80;99.90
22503;DHT22;11418;48.118;9.992;2022-10-16T03:52:40;11.70;99.90
22503;DHT22;11418;48.118;9.992;2022-10-16T03:56:40;11.70;99.90
22503;DHT22;11418;48.118;9.992;2022-10-16T04:00:45;11.70;99.90
22503;DHT22;11418;48.118;9.992;2022-10-16T04:04:47;11.80;99.90
22503;DHT22;11418;48.118;9.992;2022-10-16T04:08:47;11.70;99.90
22503;DHT22;11418;48.118;9.992;2022-10-16T04:12:48;11.70;99.90
22503;DHT22;11418;48.118;9.992;2022-10-16T04:16:48;11.80;99.90
22503;DHT22;11418;48.118;9.992;2022-10-16T04:20:49;11.80;99.90
22503;DHT22;11418;48.118;9.992;2022-10-16T04:24:49;11.70;99.90
22503;DHT22;11418;48.118;9.992;2022-10-16T04:28:50;11.60;99.90
22503;DHT22;11418;48.118;9.992;2022-10-16T04:32:51;11.60;99.90
22503;DHT22;11418;48.118;9.992;2022-10-16T04:36:52;11.60;99.90
22503;DHT22;11418;48.118;9.992;2022-10-16T04:40:53;11.70;99.90
22503;DHT22;11418;48.118;9.992;2022-10-16T04:44:53;11.70;99.90
22503;DHT22;11418;48.118;9.992;2022-10-16T04:48:54;11.70;99.90
22503;DHT22;11418;48.118;9.992;2022-10-16T04:52:54;11.70;99.90
22503;DHT22;11418;48.118;9.992;2022-10-16T04:56:55;11.60;99.90
22503;DHT22;11418;48.118;9.992;2022-10-16T05:00:56;11.50;99.90
22503;DHT22;11418;48.118;9.992;2022-10-16T05:19:05;11.20;99.90
22503;DHT22;11418;48.118;9.992;2022-10-16T05:23:06;11.00;99.90
22503;DHT22;11418;48.118;9.992;2022-10-16T05:27:06;11.00;99.90
22503;DHT22;11418;48.118;9.992;2022-10-16T05:31:08;10.90;99.90
22503;DHT22;11418;48.118;9.992;2022-10-16T05:35:09;11.00;99.90
22503;DHT22;11418;48.118;9.992;2022-10-16T05:39:10;11.00;99.90
22503;DHT22;11418;48.118;9.992;2022-10-16T05:43:10;11.10;99.90
22503;DHT22;11418;48.118;9.992;2022-10-16T05:47:12;11.10;99.90
22503;DHT22;11418;48.118;9.992;2022-10-16T05:51:14;11.10;99.90
22503;DHT22;11418;48.118;9.992;2022-10-16T05:55:15;11.30;99.90
22503;DHT22;11418;48.118;9.992;2022-10-16T05:59:16;11.20;99.90
22503;DHT22;11418;48.118;9.992;2022-10-16T06:03:16;11.30;99.90
22503;DHT22;11418;48.118;9.992;2022-10-16T06:07:17;11.40;99.90
22503;DHT22;11418;48.118;9.992;2022-10-16T06:11:19;11.50;99.90
22503;DHT22;11418;48.118;9.992;2022-10-16T06:15:20;11.80;99.90
22503;DHT22;11418;48.118;9.992;2022-10-16T06:19:21;11.80;99.90
22503;DHT22;11418;48.118;9.992;2022-10-16T06:23:22;11.80;99.90
22503;DHT22;11418;48.118;9.992;2022-10-16T06:27:23;11.90;99.90
22503;DHT22;11418;48.118;9.992;2022-10-16T06:31:24;11.90;99.90
22503;DHT22;11418;48.118;9.992;2022-10-16T06:35:27;12.20;99.90
22503;DHT22;11418;48.118;9.992;2022-10-16T06:39:29;12.40;99.90
22503;DHT22;11418;48.118;9.992;2022-10-16T06:43:30;12.40;99.90
22503;DHT22;11418;48.118;9.992;2022-10-16T06:47:35;12.50;99.90
22503;DHT22;11418;48.118;9.992;2022-10-16T06:51:36;12.60;99.90
22503;DHT22;11418;48.118;9.992;2022-10-16T06:55:41;12.80;99.90
22503;DHT22;11418;48.118;9.992;2022-10-16T06:59:41;12.90;99.90
22503;DHT22;11418;48.118;9.992;2022-10-16T07:03:43;13.00;99.90
22503;DHT22;11418;48.118;9.992;2022-10-16T07:07:44;13.10;99.90
22503;DHT22;11418;48.118;9.992;2022-10-16T07:11:44;13.40;99.90
22503;DHT22;11418;48.118;9.992;2022-10-16T07:15:45;13.70;99.90
22503;DHT22;11418;48.118;9.992;2022-10-16T07:19:46;13.90;99.90
22503;DHT22;11418;48.118;9.992;2022-10-16T07:23:54;13.90;99.90
22503;DHT22;11418;48.118;9.992;2022-10-16T07:27:55;14.10;99.90
22503;DHT22;11418;48.118;9.992;2022-10-16T07:31:57;14.30;99.90
22503;DHT22;11418;48.118;9.992;2022-10-16T07:35:57;14.50;99.90
22503;DHT22;11418;48.118;9.992;2022-10-16T07:39:58;14.90;99.90
22503;DHT22;11418;48.118;9.992;2022-10-16T07:43:59;15.10;99.90
22503;DHT22;11418;48.118;9.992;2022-10-16T07:48:00;15.40;99.90
22503;DHT22;11418;48.118;9.992;2022-10-16T07:52:01;15.90;99.90
22503;DHT22;11418;48.118;9.992;2022-10-16T07:56:04;16.30;99.90
22503;DHT22;11418;48.118;9.992;2022-10-16T08:00:06;16.50;99.90
22503;DHT22;11418;48.118;9.992;2022-10-16T08:04:07;16.90;99.90
22503;DHT22;11418;48.118;9.992;2022-10-16T08:08:15;17.40;99.90
22503;DHT22;11418;48.118;9.992;2022-10-16T08:12:16;17.50;99.90
22503;DHT22;11418;48.118;9.992;2022-10-16T08:16:16;17.70;99.90
22503;DHT22;11418;48.118;9.992;2022-10-16T08:20:17;18.40;99.90
22503;DHT22;11418;48.118;9.992;2022-10-16T08:24:18;18.40;99.90
22503;DHT22;11418;48.118;9.992;2022-10-16T08:28:19;18.80;99.90
22503;DHT22;11418;48.118;9.992;2022-10-16T08:32:19;19.10;99.90
22503;DHT22;11418;48.118;9.992;2022-10-16T08:36:20;19.00;99.90
22503;DHT22;11418;48.118;9.992;2022-10-16T08:40:24;19.10;99.90
22503;DHT22;11418;48.118;9.992;2022-10-16T08:44:35;19.30;99.90
22503;DHT22;11418;48.118;9.992;2022-10-16T08:48:51;19.90;99.90
22503;DHT22;11418;48.118;9.992;2022-10-16T08:52:52;19.60;99.90
22503;DHT22;11418;48.118;9.992;2022-10-16T08:56:55;19.50;99.90
22503;DHT22;11418;48.118;9.992;2022-10-16T09:01:00;19.80;99.90
22503;DHT22;11418;48.118;9.992;2022-10-16T09:09:43;19.70;99.90
22503;DHT22;11418;48.118;9.992;2022-10-16T09:18:15;20.20;99.90
22503;DHT22;11418;48.118;9.992;2022-10-16T09:22:26;20.80;99.90
22503;DHT22;11418;48.118;9.992;2022-10-16T09:26:27;20.80;99.90
22503;DHT22;11418;48.118;9.992;2022-10-16T09:30:29;21.00;99.90
22503;DHT22;11418;48.118;9.992;2022-10-16T09:34:36;21.40;99.90
22503;DHT22;11418;48.118;9.992;2022-10-16T09:38:38;21.80;99.90
22503;DHT22;11418;48.118;9.992;2022-10-16T09:42:39;22.00;99.90
22503;DHT22;11418;48.118;9.992;2022-10-16T09:46:39;22.30;99.90
22503;DHT22;11418;48.118;9.992;2022-10-16T09:50:40;22.50;99.90
22503;DHT22;11418;48.118;9.992;2022-10-16T09:54:51;22.50;99.90
22503;DHT22;11418;48.118;9.992;2022-10-16T09:58:53;22.90;99.90
22503;DHT22;11418;48.118;9.992;2022-10-16T10:02:54;23.40;99.90
22503;DHT22;11418;48.118;9.992;2022-10-16T10:06:57;23.40;99.90
22503;DHT22;11418;48.118;9.992;2022-10-16T10:10:58;23.50;99.90
22503;DHT22;11418;48.118;9.992;2022-10-16T10:15:10;23.80;99.90
22503;DHT22;11418;48.118;9.992;2022-10-16T10:19:20;24.20;99.90
22503;DHT22;11418;48.118;9.992;2022-10-16T10:23:23;24.30;99.90
22503;DHT22;11418;48.118;9.992;2022-10-16T10:44:47;25.00;99.90
22503;DHT22;11418;48.118;9.992;2022-10-16T10:49:09;26.10;99.90
22503;DHT22;11418;48.118;9.992;2022-10-16T10:57:57;28.80;99.90
22503;DHT22;11418;48.118;9.992;2022-10-16T11:06:12;30.40;96.60
22503;DHT22;11418;48.118;9.992;2022-10-16T11:10:30;30.00;92.80
22503;DHT22;11418;48.118;9.992;2022-10-16T11:19:35;28.60;96.10
22503;DHT22;11418;48.118;9.992;2022-10-16T11:23:58;27.60;99.20
22503;DHT22;11418;48.118;9.992;2022-10-16T11:32:49;28.10;99.20
22503;DHT22;11418;48.118;9.992;2022-10-16T11:45:36;29.10;95.10
22503;DHT22;11418;48.118;9.992;2022-10-16T11:49:40;30.40;92.20
22503;DHT22;11418;48.118;9.992;2022-10-16T11:54:08;31.10;90.90
22503;DHT22;11418;48.118;9.992;2022-10-16T12:06:37;29.60;90.90
22503;DHT22;11418;48.118;9.992;2022-10-16T12:10:43;30.80;86.10
22503;DHT22;11418;48.118;9.992;2022-10-16T12:14:44;32.00;80.50
22503;DHT22;11418;48.118;9.992;2022-10-16T12:18:46;32.40;77.90
22503;DHT22;11418;48.118;9.992;2022-10-16T12:26:54;32.20;71.70
22503;DHT22;11418;48.118;9.992;2022-10-16T12:31:01;30.10;75.90
22503;DHT22;11418;48.118;9.992;2022-10-16T12:35:03;28.30;79.10
22503;DHT22;11418;48.118;9.992;2022-10-16T12:39:05;27.40;83.20
22503;DHT22;11418;48.118;9.992;2022-10-16T12:43:58;26.80;84.40
22503;DHT22;11418;48.118;9.992;2022-10-16T12:51:36;26.20;88.70
22503;DHT22;11418;48.118;9.992;2022-10-16T12:55:53;26.10;86.80
22503;DHT22;11418;48.118;9.992;2022-10-16T13:04:45;25.00;88.70
22503;DHT22;11418;48.118;9.992;2022-10-16T13:09:17;24.70;92.30
22503;DHT22;11418;48.118;9.992;2022-10-16T13:26:31;25.20;92.10
22503;DHT22;11418;48.118;9.992;2022-10-16T13:30:41;25.00;88.60
22503;DHT22;11418;48.118;9.992;2022-10-16T13:34:47;24.60;93.90
22503;DHT22;11418;48.118;9.992;2022-10-16T13:38:48;25.70;93.00
22503;DHT22;11418;48.118;9.992;2022-10-16T13:43:00;27.30;89.60
22503;DHT22;11418;48.118;9.992;2022-10-16T13:47:02;28.20;88.60
22503;DHT22;11418;48.118;9.992;2022-10-16T13:51:04;28.40;80.80
22503;DHT22;11418;48.118;9.992;2022-10-16T13:55:16;28.50;80.30
22503;DHT22;11418;48.118;9.992;2022-10-16T13:59:24;28.90;77.90
22503;DHT22;11418;48.118;9.992;2022-10-16T14:03:26;28.40;76.80
22503;DHT22;11418;48.118;9.992;2022-10-16T14:07:29;27.00;91.10
22503;DHT22;11418;48.118;9.992;2022-10-16T14:11:33;25.80;91.40
22503;DHT22;11418;48.118;9.992;2022-10-16T14:15:35;25.20;93.10
22503;DHT22;11418;48.118;9.992;2022-10-16T14:19:36;25.00;90.80
22503;DHT22;11418;48.118;9.992;2022-10-16T14:23:42;24.90;92.80
22503;DHT22;11418;48.118;9.992;2022-10-16T14:27:42;25.10;91.20
22503;DHT22;11418;48.118;9.992;2022-10-16T14:32:00;25.50;91.20
22503;DHT22;11418;48.118;9.992;2022-10-16T14:36:11;25.70;90.80
22503;DHT22;11418;48.118;9.992;2022-10-16T14:40:15;26.00;95.00
22503;DHT22;11418;48.118;9.992;2022-10-16T14:44:18;25.80;93.30
22503;DHT22;11418;48.118;9.992;2022-10-16T14:48:20;25.10;95.20
22503;DHT22;11418;48.118;9.992;2022-10-16T14:52:21;24.40;97.50
22503;DHT22;11418;48.118;9.992;2022-10-16T14:56:24;23.70;99.90
22503;DHT22;11418;48.118;9.992;2022-10-16T15:00:25;23.10;99.90
22503;DHT22;11418;48.118;9.992;2022-10-16T15:04:26;22.70;99.90
22503;DHT22;11418;48.118;9.992;2022-10-16T15:08:26;22.50;99.90
22503;DHT22;11418;48.118;9.992;2022-10-16T15:12:27;22.10;99.90
22503;DHT22;11418;48.118;9.992;2022-10-16T15:16:27;21.90;99.90
22503;DHT22;11418;48.118;9.992;2022-10-16T15:20:31;21.70;99.90
22503;DHT22;11418;48.118;9.992;2022-10-16T15:24:34;21.60;99.90
22503;DHT22;11418;48.118;9.992;2022-10-16T15:28:34;21.30;99.90
22503;DHT22;11418;48.118;9.992;2022-10-16T15:32:36;21.10;99.90
22503;DHT22;11418;48.118;9.992;2022-10-16T15:36:37;20.90;99.90
22503;DHT22;11418;48.118;9.992;2022-10-16T15:40:39;20.80;99.90
22503;DHT22;11418;48.118;9.992;2022-10-16T15:44:40;20.50;99.90
22503;DHT22;11418;48.118;9.992;2022-10-16T15:48:40;20.30;99.90
22503;DHT22;11418;48.118;9.992;2022-10-16T15:52:41;20.10;99.90
22503;DHT22;11418;48.118;9.992;2022-10-16T15:56:41;19.80;99.90
22503;DHT22;11418;48.118;9.992;2022-10-16T16:00:42;19.50;99.90
22503;DHT22;11418;48.118;9.992;2022-10-16T16:04:43;19.30;99.90
22503;DHT22;11418;48.118;9.992;2022-10-16T16:08:43;19.10;99.90
22503;DHT22;11418;48.118;9.992;2022-10-16T16:12:46;18.90;99.90
22503;DHT22;11418;48.118;9.992;2022-10-16T16:16:51;18.40;99.90
22503;DHT22;11418;48.118;9.992;2022-10-16T16:20:52;18.10;99.90
22503;DHT22;11418;48.118;9.992;2022-10-16T16:24:53;17.50;99.90
22503;DHT22;11418;48.118;9.992;2022-10-16T16:28:54;17.30;99.90
22503;DHT22;11418;48.118;9.992;2022-10-16T16:32:55;17.20;99.90
22503;DHT22;11418;48.118;9.992;2022-10-16T16:36:56;17.00;99.90
22503;DHT22;11418;48.118;9.992;2022-10-16T16:40:57;16.70;99.90
22503;DHT22;11418;48.118;9.992;2022-10-16T16:44:57;16.50;99.90
22503;DHT22;11418;48.118;9.992;2022-10-16T16:48:59;16.30;99.90
22503;DHT22;11418;48.118;9.992;2022-10-16T16:52:59;16.10;99.90
22503;DHT22;11418;48.118;9.992;2022-10-16T16:57:00;15.90;99.90
22503;DHT22;11418;48.118;9.992;2022-10-16T17:01:02;15.70;99.90
22503;DHT22;11418;48.118;9.992;2022-10-16T17:05:03;15.80;99.90
22503;DHT22;11418;48.118;9.992;2022-10-16T17:09:05;15.80;99.90
22503;DHT22;11418;48.118;9.992;2022-10-16T17:13:06;15.60;99.90
22503;DHT22;11418;48.118;9.992;2022-10-16T17:17:06;15.40;99.90
22503;DHT22;11418;48.118;9.992;2022-10-16T17:21:08;15.10;99.90
22503;DHT22;11418;48.118;9.992;2022-10-16T17:25:08;14.90;99.90
22503;DHT22;11418;48.118;9.992;2022-10-16T17:29:11;14.80;99.90
22503;DHT22;11418;48.118;9.992;2022-10-16T17:33:13;14.80;99.90
22503;DHT22;11418;48.118;9.992;2022-10-16T17:37:13;14.70;99.90
22503;DHT22;11418;48.118;9.992;2022-10-16T17:41:18;14.60;99.90
22503;DHT22;11418;48.118;9.992;2022-10-16T17:45:18;14.50;99.90
22503;DHT22;11418;48.118;9.992;2022-10-16T17:49:20;14.50;99.90
22503;DHT22;11418;48.118;9.992;2022-10-16T17:53:20;14.30;99.90
22503;DHT22;11418;48.118;9.992;2022-10-16T17:57:21;14.10;99.90
22503;DHT22;11418;48.118;9.992;2022-10-16T18:01:33;13.80;99.90
22503;DHT22;11418;48.118;9.992;2022-10-16T18:05:37;13.80;99.90
22503;DHT22;11418;48.118;9.992;2022-10-16T18:09:38;13.60;99.90
22503;DHT22;11418;48.118;9.992;2022-10-16T18:13:41;13.40;99.90
22503;DHT22;11418;48.118;9.992;2022-10-16T18:17:42;13.40;99.90
22503;DHT22;11418;48.118;9.992;2022-10-16T18:21:42;13.30;99.90
22503;DHT22;11418;48.118;9.992;2022-10-16T18:25:49;13.20;99.90
22503;DHT22;11418;48.118;9.992;2022-10-16T18:29:50;13.00;99.90
22503;DHT22;11418;48.118;9.992;2022-10-16T18:33:56;12.90;99.90
22503;DHT22;11418;48.118;9.992;2022-10-16T18:37:56;12.90;99.90
22503;DHT22;11418;48.118;9.992;2022-10-16T18:41:59;12.80;99.90
22503;DHT22;11418;48.118;9.992;2022-10-16T18:46:06;12.70;99.90
22503;DHT22;11418;48.118;9.992;2022-10-16T18:50:07;12.60;99.90
22503;DHT22;11418;48.118;9.992;2022-10-16T18:54:09;12.60;99.90
22503;DHT22;11418;48.118;9.992;2022-10-16T18:58:10;12.50;99.90
22503;DHT22;11418;48.118;9.992;2022-10-16T19:02:11;12.40;99.90
22503;DHT22;11418;48.118;9.992;2022-10-16T19:06:14;12.30;99.90
22503;DHT22;11418;48.118;9.992;2022-10-16T19:10:15;12.20;99.90
22503;DHT22;11418;48.118;9.992;2022-10-16T19:14:16;12.10;99.90
22503;DHT22;11418;48.118;9.992;2022-10-16T19:18:16;12.30;99.90
22503;DHT22;11418;48.118;9.992;2022-10-16T19:22:17;12.20;99.90
22503;DHT22;11418;48.118;9.992;2022-10-16T19:26:30;12.10;99.90
22503;DHT22;11418;48.118;9.992;2022-10-16T19:30:37;11.90;99.90
22503;DHT22;11418;48.118;9.992;2022-10-16T19:34:38;11.90;99.90
22503;DHT22;11418;48.118;9.992;2022-10-16T19:38:40;11.90;99.90
22503;DHT22;11418;48.118;9.992;2022-10-16T19:42:40;11.80;99.90
22503;DHT22;11418;48.118;9.992;2022-10-16T19:46:44;11.60;99.90
22503;DHT22;11418;48.118;9.992;2022-10-16T19:50:45;11.80;99.90
22503;DHT22;11418;48.118;9.992;2022-10-16T19:54:46;11.50;99.90
22503;DHT22;11418;48.118;9.992;2022-10-16T19:58:48;11.30;99.90
22503;DHT22;11418;48.118;9.992;2022-10-16T20:02:49;11.20;99.90
22503;DHT22;11418;48.118;9.992;2022-10-16T20:06:49;11.30;99.90
22503;DHT22;11418;48.118;9.992;2022-10-16T20:10:52;11.30;99.90
22503;DHT22;11418;48.118;9.992;2022-10-16T20:14:52;11.30;99.90
22503;DHT22;11418;48.118;9.992;2022-10-16T20:18:53;11.20;99.90
22503;DHT22;11418;48.118;9.992;2022-10-16T20:22:53;11.10;99.90
22503;DHT22;11418;48.118;9.992;2022-10-16T20:26:54;10.90;99.90
22503;DHT22;11418;48.118;9.992;2022-10-16T20:30:54;10.70;99.90
22503;DHT22;11418;48.118;9.992;2022-10-16T20:34:55;10.70;99.90
22503;DHT22;11418;48.118;9.992;2022-10-16T20:38:56;10.80;99.90
22503;DHT22;11418;48.118;9.992;2022-10-16T20:42:56;10.70;99.90
22503;DHT22;11418;48.118;9.992;2022-10-16T20:46:57;10.60;99.90
22503;DHT22;11418;48.118;9.992;2022-10-16T20:50:58;10.50;99.90
22503;DHT22;11418;48.118;9.992;2022-10-16T20:54:59;10.50;99.90
22503;DHT22;11418;48.118;9.992;2022-10-16T20:59:00;10.50;99.90
22503;DHT22;11418;48.118;9.992;2022-10-16T21:03:00;10.40;99.90
22503;DHT22;11418;48.118;9.992;2022-10-16T21:07:01;10.20;99.90
22503;DHT22;11418;48.118;9.992;2022-10-16T21:11:09;10.00;99.90
22503;DHT22;11418;48.118;9.992;2022-10-16T21:15:10;10.10;99.90
22503;DHT22;11418;48.118;9.992;2022-10-16T21:19:12;10.00;99.90
22503;DHT22;11418;48.118;9.992;2022-10-16T21:23:12;10.20;99.90
22503;DHT22;11418;48.118;9.992;2022-10-16T21:27:13;10.40;99.90
22503;DHT22;11418;48.118;9.992;2022-10-16T21:31:16;10.50;99.90
22503;DHT22;11418;48.118;9.992;2022-10-16T21:35:23;10.50;99.90
22503;DHT22;11418;48.118;9.992;2022-10-16T21:39:24;10.40;99.90
22503;DHT22;11418;48.118;9.992;2022-10-16T21:43:25;10.70;99.90
22503;DHT22;11418;48.118;9.992;2022-10-16T21:47:26;10.50;99.90
22503;DHT22;11418;48.118;9.992;2022-10-16T21:51:28;10.10;99.90
22503;DHT22;11418;48.118;9.992;2022-10-16T21:55:29;9.90;99.90
22503;DHT22;11418;48.118;9.992;2022-10-16T21:59:29;9.80;99.90
22503;DHT22;11418;48.118;9.992;2022-10-16T22:03:30;9.70;99.90
22503;DHT22;11418;48.118;9.992;2022-10-16T22:07:30;9.80;99.90
22503;DHT22;11418;48.118;9.992;2022-10-16T22:11:33;9.70;99.90
22503;DHT22;11418;48.118;9.992;2022-10-16T22:15:37;9.70;99.90
22503;DHT22;11418;48.118;9.992;2022-10-16T22:19:37;9.60;99.90
22503;DHT22;11418;48.118;9.992;2022-10-16T22:23:38;9.70;99.90
22503;DHT22;11418;48.118;9.992;2022-10-16T22:27:39;9.70;99.90
22503;DHT22;11418;48.118;9.992;2022-10-16T22:31:39;9.60;99.90
22503;DHT22;11418;48.118;9.992;2022-10-16T22:35:40;9.70;99.90
22503;DHT22;11418;48.118;9.992;2022-10-16T22:39:41;9.70;99.90
22503;DHT22;11418;48.118;9.992;2022-10-16T22:43:47;9.60;99.90
22503;DHT22;11418;48.118;9.992;2022-10-16T22:47:48;9.50;99.90
22503;DHT22;11418;48.118;9.992;2022-10-16T22:51:48;9.30;99.90
22503;DHT22;11418;48.118;9.992;2022-10-16T22:55:49;9.30;99.90
22503;DHT22;11418;48.118;9.992;2022-10-16T22:59:50;9.30;99.90
22503;DHT22;11418;48.118;9.992;2022-10-16T23:03:50;9.40;99.90
22503;DHT22;11418;48.118;9.992;2022-10-16T23:07:51;9.20;99.90
22503;DHT22;11418;48.118;9.992;2022-10-16T23:11:51;9.40;99.90
22503;DHT22;11418;48.118;9.992;2022-10-16T23:15:52;9.30;99.90
22503;DHT22;11418;48.118;9.992;2022-10-16T23:19:53;9.20;99.90
22503;DHT22;11418;48.118;9.992;2022-10-16T23:23:53;9.10;99.90
22503;DHT22;11418;48.118;9.992;2022-10-16T23:27:54;8.90;99.90
22503;DHT22;11418;48.118;9.992;2022-10-16T23:31:55;8.90;99.90
22503;DHT22;11418;48.118;9.992;2022-10-16T23:35:56;8.90;99.90
22503;DHT22;11418;48.118;9.992;2022-10-16T23:39:57;9.10;99.90
22503;DHT22;11418;48.118;9.992;2022-10-16T23:43:57;9.10;99.90
22503;DHT22;11418;48.118;9.992;2022-10-16T23:47:58;9.00;99.90
22503;DHT22;11418;48.118;9.992;2022-10-16T23:51:59;8.80;99.90
22503;DHT22;11418;48.118;9.992;2022-10-16T23:56:00;8.80;99.90
